O Champagne 2015 (Sprint) Montagne de Reims (51) - A

Date : 10/10/2015

Place Nom Licence Catégorie Club Temps CN à J-60 Points Différence Nouveau CN
1 RADONDY Théo 22370 H20 5907NO 0:14:58 7629 7123 -506 7953
2 HALTZ Louis 24070 H18 5907NO 0:15:19 7279 6960 -319 7471
3 DANEL Jerome 16280 H40 5906NO 0:16:21 6517 6520 +3 6630
4 SOUCAT Cyril 22318 H21 7720IF 0:16:25 6936 6493 -443 6830
5 DERENNE Thibaut 29515 H21 5116CA 0:17:01 7071 6265 -806 7233
6 MAHIEU Pierre 6999 H21 5907NO 0:17:07 6299 6228 -71 6402
7 DUMONT Julien 17780 H21 5116CA 0:17:14 5734 6186 +452 5995
8 AUBERT Guilhem 27427 H21 6911RA 0:17:31 5327 6086 +759 5580
9 AMERIJCKX Christophe 24273 H45 5907NO 0:17:38 5629 6045 +416 5825
10 PAILLEUX Steven 22347 H21 6203NO 0:17:43 5934 6017 +83 6011
11 LALOUX Clément 22447 H20 5907NO 0:17:57 6054 5939 -115 6234
12 POIRSON Gaëtan 21168 H21 7004FC 0:18:03 6148 5906 -242 6095
13 ANDRE Camille 11655 H21 5116CA 0:18:06 6897 5890 -1007 6945
14 BLUM Simon 12977 H21 5116CA 0:18:25 5875 5788 -87 5876
15 MANIERE Louis 17628 H21 6008PI 0:18:28 5607 5773 +166 5781
16 ALLE Paul 14077 H55 5402LO 0:19:06 5652 5581 -71 5655
17 L'HOTE Grégoire 26974 H21 7720IF 0:19:20 5001 5514 +513 4493
18 GILLET Quentin 31073 H40 0801CA 0:19:43 5524 5407 -117 5575
19 REZE Baptiste 28347 H20 1403NM 0:19:48 5356 5384 +28 5272
20 BECUWE Yannick 28966 H40 5909NO 0:19:56 4651 5348 +697 4944
21 PRUVOST Stephane 22302 H40 6208NO 0:19:56 5208 5348 +140 5148
22 COMMERE Laurent 23043 H45 6008PI 0:20:14 5091 5269 +178 5270
23 GALLOIS Marc 21998 H40 0207PI 0:20:29 5123 5204 +81 5196
24 FROGNET Théotime 26610 H18 5116CA 0:20:48 4610 5125 +515 4783
25 TAELEMANS Philippe 13278 H50 5907NO 0:21:01 5526 5072 -454 5309
26 MARTIN Pascal 25117 H45 5402LO 0:21:07 5434 5048 -386 5671
27 VERCAUTEREN Thomas 16226 H20 6008PI 0:21:14 0 5020 4741
28 HERY Clément 28376 H21 5116CA 0:21:17 3511 5009 +1498 3770
29 DEHESTRU Guillaume 31618 H21 7807IF 0:21:24 4981 3444
30 DENOUAL Jean-Luc 29350 H45 6008PI 0:21:25 5658 4977 -681 5618
31 SOLIER Judicael 27854 H21 6008PI 0:21:29 4866 4962 +96 5022
32 URVOY Martial 23615 H40 6203NO 0:21:58 5276 4853 -423 5208
33 SOUWEINE Gérald 22963 H40 5907NO 0:21:59 5448 4849 -599 5282
34 VAYSSAT Gilles 24391 H35 6008PI 0:22:01 5924 4842 -1082 5904
35 RAU Hervé 25624 H40 5909NO 0:22:09 4255 4813 +558 4561
36 GUILLOT Maxime 20363 H21 7004FC 0:22:42 4345 4696 +351 4523
37 JANQUIN Philippe 27608 H45 6203NO 0:23:34 4616 4523 -93 4612
38 HUMBERTCLAUDE J-Paul 16205 H65 5909NO 0:24:17 3901 4390 +489 3984
39 ECHILLEY Arnaud 24475 H35 7004FC 0:24:58 5983 4270 -1713 5983
40 HUET Nicolas 31793 H21 5116CA 0:24:59 4267 0
41 ARROQUI Philippe 22651 H45 5909NO 0:25:38 4119 4159 +40 3967
42 VERCAUTEREN Francois 16227 H45 6008PI 0:30:43 4590 3470 -1120 4590
43 VACHER Jean Philippe 19602 H40 5116CA 0:31:06 2822 3428 +606 3145
44 MYSOET Mickaël 31483 H21 5907NO 0:31:26 3391 3323
45 SALINGUE VINCENT 31238 H40 6203NO 0:41:24 1966 2575 +609 2268
nc BLUM Jean-Guy 13673 H21 5116CA 0:19:53